createdAt,value
2018-04-15T00:02:07.401Z,70.22
2018-04-15T00:04:35.661Z,67.10
2018-04-15T00:07:04.676Z,67.62
2018-04-15T00:09:32.976Z,67.93
2018-04-15T00:12:01.236Z,71.30
2018-04-15T00:14:29.527Z,67.18
2018-04-15T00:16:57.801Z,70.07
2018-04-15T00:19:26.060Z,68.57
2018-04-15T00:21:54.365Z,68.97
2018-04-15T00:24:22.644Z,64.93
2018-04-15T00:26:51.021Z,69.50
2018-04-15T00:29:19.275Z,67.90
2018-04-15T00:31:47.532Z,64.35
2018-04-15T00:34:15.793Z,67.75
2018-04-15T00:36:44.817Z,67.00
2018-04-15T00:39:13.113Z,69.22
2018-04-15T00:41:41.364Z,70.18
2018-04-15T00:44:09.624Z,69.00
2018-04-15T00:46:37.878Z,63.78
2018-04-15T00:49:06.884Z,64.03
2018-04-15T00:51:35.139Z,67.70
2018-04-15T00:54:16.096Z,68.57
2018-04-15T00:56:44.461Z,63.95
2018-04-15T00:59:12.724Z,67.68
2018-04-15T01:01:40.985Z,71.03
2018-04-15T01:04:09.275Z,68.93
2018-04-15T01:06:37.535Z,65.65
2018-04-15T01:09:05.841Z,69.00
2018-04-15T01:11:34.103Z,82.65
2018-04-15T01:14:02.347Z,74.72
2018-04-15T01:16:30.604Z,69.97
2018-04-15T01:18:59.624Z,83.03
2018-04-15T01:21:27.919Z,73.47
2018-04-15T01:23:56.193Z,74.82
2018-04-15T01:26:24.467Z,72.35
2018-04-15T01:28:52.712Z,70.57
2018-04-15T01:31:21.749Z,69.15
2018-04-15T01:33:49.999Z,71.60
2018-04-15T01:36:18.300Z,73.25
2018-04-15T01:38:46.578Z,74.55
2018-04-15T01:41:14.943Z,66.70
2018-04-15T01:43:43.191Z,72.70
2018-04-15T01:46:11.442Z,68.28
2018-04-15T01:48:40.459Z,64.37
2018-04-15T01:51:08.707Z,60.60
2018-04-15T01:53:37.725Z,65.90
2018-04-15T01:56:06.086Z,61.55
2018-04-15T01:58:34.323Z,67.12
2018-04-15T02:01:02.564Z,63.40
2018-04-15T02:03:30.860Z,77.97
2018-04-15T02:05:59.103Z,73.82
2018-04-15T02:08:27.365Z,71.45
2018-04-15T02:10:56.376Z,74.47
2018-04-15T02:13:24.635Z,71.28
2018-04-15T02:15:53.656Z,82.37
2018-04-15T02:18:21.948Z,70.45
2018-04-15T02:20:50.196Z,71.70
2018-04-15T02:23:18.471Z,69.82
2018-04-15T02:25:46.781Z,75.43
2018-04-15T02:28:15.032Z,82.60
2018-04-15T02:30:43.324Z,79.97
2018-04-15T02:33:11.609Z,78.80
2018-04-15T02:35:39.852Z,76.15
2018-04-15T02:38:08.113Z,72.55
2018-04-15T02:40:37.133Z,77.40
2018-04-15T02:43:05.384Z,78.35
2018-04-15T02:45:33.637Z,86.07
2018-04-15T02:48:02.661Z,88.85
2018-04-15T02:50:30.908Z,90.72
2018-04-15T02:52:59.962Z,79.57
2018-04-15T02:55:28.205Z,83.15
2018-04-15T02:57:56.511Z,79.00
2018-04-15T03:00:24.803Z,82.80
2018-04-15T03:02:53.166Z,82.40
2018-04-15T03:05:21.429Z,79.80
2018-04-15T03:07:49.693Z,80.82
2018-04-15T03:10:17.938Z,82.60
2018-04-15T03:12:47.081Z,75.35
2018-04-15T03:15:15.328Z,80.18
2018-04-15T03:17:43.576Z,79.47
2018-04-15T03:20:11.830Z,79.87
2018-04-15T03:22:40.185Z,79.80
2018-04-15T03:25:08.442Z,72.82
2018-04-15T03:27:36.729Z,75.87
2018-04-15T03:30:04.980Z,77.65
2018-04-15T03:32:33.233Z,80.55
2018-04-15T03:35:02.257Z,82.37
2018-04-15T03:37:30.507Z,82.85
2018-04-15T03:39:59.546Z,84.18
2018-04-15T03:42:27.816Z,88.10
2018-04-15T03:44:56.076Z,82.68
2018-04-15T03:47:24.315Z,83.97
2018-04-15T03:49:53.360Z,82.95
2018-04-15T03:52:21.608Z,79.70
2018-04-15T03:54:49.867Z,85.60
2018-04-15T03:57:18.886Z,85.45
2018-04-15T03:59:47.140Z,91.63
2018-04-15T04:02:16.186Z,84.62
2018-04-15T04:04:44.440Z,87.53
2018-04-15T04:07:12.732Z,84.55
2018-04-15T04:09:40.983Z,89.68
2018-04-15T04:12:09.229Z,81.28
2018-04-15T04:14:38.278Z,81.30
2018-04-15T04:17:06.524Z,81.35
2018-04-15T04:19:46.588Z,83.68
2018-04-15T04:22:26.792Z,80.35
2018-04-15T04:25:07.019Z,83.62
2018-04-15T04:27:35.272Z,84.20
2018-04-15T04:30:03.582Z,80.50
2018-04-15T04:32:31.820Z,87.85
2018-04-15T04:35:00.082Z,82.47
2018-04-15T04:37:28.379Z,81.70
2018-04-15T04:39:56.642Z,85.78
2018-04-15T04:42:24.941Z,85.93
2018-04-15T04:44:53.216Z,79.12
2018-04-15T04:47:21.488Z,74.82
2018-04-15T04:49:49.759Z,81.50
2018-04-15T04:52:18.076Z,71.00
2018-04-15T04:54:46.321Z,67.57
2018-04-15T04:57:14.584Z,65.30
2018-04-15T04:59:42.861Z,63.45
2018-04-15T05:02:11.133Z,66.25
2018-04-15T05:04:39.435Z,61.67
2018-04-15T05:07:07.788Z,60.22
2018-04-15T05:09:36.035Z,65.03
2018-04-15T05:12:04.293Z,58.78
2018-04-15T05:14:33.345Z,61.40
2018-04-15T05:17:01.597Z,57.92
2018-04-15T05:19:29.849Z,54.65
2018-04-15T05:21:58.875Z,47.97
2018-04-15T05:24:27.142Z,56.42
2018-04-15T05:26:55.436Z,52.62
2018-04-15T05:29:23.682Z,56.33
2018-04-15T05:31:51.980Z,57.58
2018-04-15T05:34:20.232Z,58.22
2018-04-15T05:36:48.484Z,61.22
2018-04-15T05:39:17.508Z,60.67
2018-04-15T05:41:45.774Z,65.10
2018-04-15T05:44:14.096Z,63.83
2018-04-15T05:46:42.361Z,55.92
2018-04-15T05:49:10.632Z,57.90
2018-04-15T05:51:38.887Z,59.38
2018-04-15T05:54:07.141Z,55.38
2018-04-15T05:56:36.275Z,55.35
2018-04-15T05:59:04.527Z,58.50
2018-04-15T06:01:32.776Z,52.70
2018-04-15T06:04:01.799Z,50.88
2018-04-15T06:06:30.076Z,53.55
2018-04-15T06:08:58.367Z,53.70
2018-04-15T06:11:26.629Z,47.05
2018-04-15T06:13:54.900Z,49.50
2018-04-15T06:16:23.155Z,50.92
2018-04-15T06:18:52.193Z,47.70
2018-04-15T06:21:20.473Z,46.40
2018-04-15T06:23:48.747Z,44.50
2018-04-15T06:26:17.025Z,45.67
2018-04-15T06:28:45.318Z,41.60
2018-04-15T06:31:13.664Z,45.73
2018-04-15T06:33:41.948Z,49.93
2018-04-15T06:36:10.205Z,47.00
2018-04-15T06:38:38.503Z,47.87
2018-04-15T06:41:06.756Z,40.13
2018-04-15T06:43:35.045Z,44.63
2018-04-15T06:46:03.319Z,43.13
2018-04-15T06:48:31.580Z,44.37
2018-04-15T06:50:59.844Z,40.43
2018-04-15T06:53:28.107Z,39.00
2018-04-15T06:55:57.948Z,41.00
2018-04-15T06:58:26.213Z,36.67
2018-04-15T07:00:54.473Z,39.90
2018-04-15T07:03:23.504Z,35.60
2018-04-15T07:05:51.755Z,34.80
2018-04-15T07:08:20.009Z,38.40
2018-04-15T07:10:49.050Z,39.37
2018-04-15T07:13:17.328Z,35.40
2018-04-15T07:15:45.576Z,39.43
2018-04-15T07:18:13.882Z,44.33
2018-04-15T07:20:42.158Z,37.13
2018-04-15T07:23:10.427Z,39.37
2018-04-15T07:25:38.698Z,37.53
2018-04-15T07:28:06.959Z,39.53
2018-04-15T07:30:35.288Z,40.60
2018-04-15T07:33:03.550Z,38.87
2018-04-15T07:35:31.943Z,43.67
2018-04-15T07:38:00.196Z,40.80
2018-04-15T07:40:28.557Z,39.97
2018-04-15T07:42:56.840Z,39.73
2018-04-15T07:45:25.088Z,40.13
2018-04-15T07:47:53.353Z,38.27
2018-04-15T07:50:21.621Z,43.13
2018-04-15T07:52:50.648Z,38.03
2018-04-15T07:55:18.917Z,41.27
2018-04-15T07:57:47.195Z,38.67
2018-04-15T08:00:15.469Z,40.83
2018-04-15T08:02:43.725Z,43.77
2018-04-15T08:05:12.007Z,40.33
2018-04-15T08:07:40.363Z,38.00
2018-04-15T08:10:08.588Z,36.90
2018-04-15T08:12:36.824Z,43.47
2018-04-15T08:15:05.094Z,42.20
2018-04-15T08:17:34.125Z,41.30
2018-04-15T08:20:02.436Z,40.70
2018-04-15T08:22:30.667Z,35.83
2018-04-15T08:24:58.925Z,33.53
2018-04-15T08:27:27.174Z,35.13
2018-04-15T08:29:56.195Z,36.67
2018-04-15T08:32:24.443Z,38.30
2018-04-15T08:34:53.492Z,35.33
2018-04-15T08:37:21.741Z,34.73
2018-04-15T08:39:50.004Z,40.00
2018-04-15T08:42:18.252Z,37.07
2018-04-15T08:44:47.281Z,35.13
2018-04-15T08:47:15.586Z,38.40
2018-04-15T08:49:43.841Z,37.57
2018-04-15T08:52:12.097Z,34.70
2018-04-15T08:54:40.356Z,32.53
2018-04-15T08:57:09.376Z,33.63
2018-04-15T08:59:37.668Z,32.70
2018-04-15T09:02:05.920Z,33.53
2018-04-15T09:04:34.187Z,34.13
2018-04-15T09:07:02.509Z,39.10
2018-04-15T09:09:30.756Z,33.63
2018-04-15T09:11:59.023Z,37.03
2018-04-15T09:14:27.284Z,37.73
2018-04-15T09:16:56.347Z,35.03
2018-04-15T09:19:24.599Z,33.07
2018-04-15T09:21:52.880Z,36.17
2018-04-15T09:24:21.487Z,34.27
2018-04-15T09:26:49.825Z,32.03
2018-04-15T09:29:18.337Z,33.30
2018-04-15T09:31:46.593Z,35.83
2018-04-15T09:34:14.900Z,36.43
2018-04-15T09:36:43.232Z,40.50
2018-04-15T09:39:11.499Z,43.33
2018-04-15T09:41:39.830Z,41.63
2018-04-15T09:44:09.146Z,44.07
2018-04-15T09:46:38.192Z,45.13
2018-04-15T09:49:06.502Z,48.17
2018-04-15T09:51:34.751Z,46.50
2018-04-15T09:54:03.090Z,47.30
2018-04-15T09:56:31.540Z,50.43
2018-04-15T09:58:59.780Z,46.17
2018-04-15T10:01:28.142Z,51.50
2018-04-15T10:03:56.409Z,54.17
2018-04-15T10:06:24.671Z,46.60
2018-04-15T10:08:52.937Z,50.20
2018-04-15T10:11:21.190Z,49.03
2018-04-15T10:13:50.200Z,50.30
2018-04-15T10:16:18.463Z,53.00
2018-04-15T10:18:47.480Z,50.67
2018-04-15T10:23:50.414Z,48.57
2018-04-15T10:26:18.667Z,45.10
2018-04-15T10:28:46.931Z,47.63
2018-04-15T10:31:15.222Z,49.70
2018-04-15T10:33:43.473Z,45.57
2018-04-15T10:36:11.735Z,46.57
2018-04-15T10:38:40.791Z,42.43
2018-04-15T10:41:09.017Z,42.47
2018-04-15T10:43:37.276Z,46.73
2018-04-15T10:46:06.366Z,42.83
2018-04-15T10:48:34.577Z,43.07
2018-04-15T10:51:02.864Z,39.70
2018-04-15T10:53:31.139Z,40.37
2018-04-15T10:55:59.429Z,39.30
2018-04-15T10:58:27.695Z,41.60
2018-04-15T11:00:55.936Z,39.50
2018-04-15T11:03:24.188Z,37.80
2018-04-15T11:05:53.236Z,38.70
2018-04-15T11:08:21.492Z,35.90
2018-04-15T11:10:49.793Z,37.60
2018-04-15T11:13:18.064Z,38.83
2018-04-15T11:15:46.327Z,38.37
2018-04-15T11:18:14.603Z,36.17
2018-04-15T11:20:42.852Z,40.33
2018-04-15T11:23:11.118Z,37.60
2018-04-15T11:25:40.132Z,35.40
2018-04-15T11:28:08.424Z,37.40
2018-04-15T11:30:36.688Z,33.87
2018-04-15T11:33:04.933Z,36.93
2018-04-15T11:35:33.956Z,34.97
2018-04-15T11:38:02.240Z,35.13
2018-04-15T11:40:30.495Z,35.90
2018-04-15T11:42:58.792Z,34.00
2018-04-15T11:45:27.076Z,35.60
2018-04-15T11:47:55.411Z,37.50
2018-04-15T11:50:24.431Z,35.57
2018-04-15T11:52:52.689Z,33.30
2018-04-15T11:55:20.935Z,34.17
2018-04-15T11:57:49.273Z,36.77
2018-04-15T12:00:17.537Z,36.50
2018-04-15T12:02:45.799Z,36.90
2018-04-15T12:05:14.077Z,34.23
2018-04-15T12:07:42.333Z,36.87
2018-04-15T12:10:10.622Z,39.47
2018-04-15T12:12:39.603Z,36.10
2018-04-15T12:15:07.919Z,38.50
2018-04-15T12:17:36.172Z,38.30
2018-04-15T12:20:04.433Z,29.97
2018-04-15T12:22:32.745Z,37.53
2018-04-15T12:25:01.014Z,36.47
2018-04-15T12:27:29.290Z,34.77
2018-04-15T12:29:57.570Z,31.37
2018-04-15T12:32:25.835Z,37.00
2018-04-15T12:34:54.084Z,36.43
2018-04-15T12:37:22.400Z,32.93
2018-04-15T12:39:50.668Z,33.90
2018-04-15T12:42:18.942Z,37.50
2018-04-15T12:44:47.194Z,38.53
2018-04-15T12:47:15.512Z,36.63
2018-04-15T12:49:43.772Z,40.63
2018-04-15T12:52:12.044Z,41.07
2018-04-15T12:54:40.325Z,43.60
2018-04-15T12:57:08.601Z,39.57
2018-04-15T12:59:36.902Z,41.97
2018-04-15T13:02:05.261Z,39.50
2018-04-15T13:04:33.528Z,38.40
2018-04-15T13:07:01.805Z,36.97
2018-04-15T13:09:30.073Z,39.23
2018-04-15T13:11:58.324Z,39.13
2018-04-15T13:14:26.580Z,33.40
2018-04-15T13:16:55.637Z,37.67
2018-04-15T13:19:23.855Z,35.13
2018-04-15T13:21:52.873Z,34.57
2018-04-15T13:24:21.174Z,34.00
2018-04-15T13:26:49.440Z,32.63
2018-04-15T13:29:17.704Z,34.37
2018-04-15T13:31:45.984Z,32.03
2018-04-15T13:34:14.244Z,35.77
2018-04-15T13:36:42.496Z,31.67
2018-04-15T13:39:11.515Z,31.23
2018-04-15T13:41:39.826Z,32.30
2018-04-15T13:44:08.077Z,35.90
2018-04-15T13:46:36.368Z,34.10
2018-04-15T13:49:04.636Z,31.67
2018-04-15T13:51:32.884Z,33.30
2018-04-15T13:54:01.175Z,35.47
2018-04-15T13:56:29.411Z,34.50
2018-04-15T13:58:58.445Z,38.83
2018-04-15T14:01:26.700Z,41.33
2018-04-15T14:03:54.962Z,38.40
2018-04-15T14:06:23.985Z,40.73
2018-04-15T14:08:52.239Z,40.33
2018-04-15T14:11:20.548Z,39.10
2018-04-15T14:13:48.812Z,42.17
2018-04-15T14:16:17.110Z,39.00
2018-04-15T14:18:45.380Z,39.07
2018-04-15T14:21:13.630Z,36.20
2018-04-15T14:23:41.891Z,33.07
2018-04-15T14:26:10.209Z,31.83
2018-04-15T14:28:38.464Z,31.20
2018-04-15T14:31:06.716Z,29.97
2018-04-15T14:33:34.984Z,34.40
2018-04-15T14:36:03.998Z,29.57
2018-04-15T14:38:32.283Z,31.63
2018-04-15T14:41:00.539Z,29.37
2018-04-15T14:43:28.850Z,31.17
2018-04-15T14:45:57.096Z,28.87
2018-04-15T14:48:25.353Z,28.77
2018-04-15T14:50:54.382Z,23.23
2018-04-15T14:53:22.641Z,25.50
2018-04-15T14:55:50.936Z,25.73
2018-04-15T14:58:19.188Z,27.20
2018-04-15T15:00:47.448Z,24.57
2018-04-15T15:03:15.764Z,26.07
2018-04-15T15:05:44.039Z,23.07
2018-04-15T15:08:12.288Z,26.47
2018-04-15T15:10:40.561Z,27.20
2018-04-15T15:13:08.866Z,25.37
2018-04-15T15:15:37.119Z,26.47
2018-04-15T15:18:05.418Z,24.60
2018-04-15T15:20:33.690Z,28.10
2018-04-15T15:23:01.945Z,26.50
2018-04-15T15:25:30.244Z,27.23
2018-04-15T15:27:58.503Z,26.37
2018-04-15T15:30:26.792Z,25.97
2018-04-15T15:32:55.043Z,26.47
2018-04-15T15:35:23.345Z,26.43
2018-04-15T15:37:51.606Z,28.03
2018-04-15T15:40:19.885Z,23.13
2018-04-15T15:42:48.142Z,26.67
2018-04-15T15:45:16.415Z,25.83
2018-04-15T15:47:44.676Z,23.47
2018-04-15T15:50:13.695Z,24.03
2018-04-15T15:52:41.951Z,25.63
2018-04-15T15:55:10.985Z,25.80
2018-04-15T15:57:39.249Z,27.00
2018-04-15T16:00:07.554Z,24.80
2018-04-15T16:02:35.751Z,23.97
2018-04-15T16:05:04.795Z,26.13
2018-04-15T16:07:33.104Z,26.03
2018-04-15T16:10:01.444Z,23.57
2018-04-15T16:12:29.701Z,21.33
2018-04-15T16:14:57.980Z,25.23
2018-04-15T16:17:26.241Z,27.13
2018-04-15T16:19:55.263Z,26.93
2018-04-15T16:22:23.513Z,24.87
2018-04-15T16:24:51.767Z,25.27
2018-04-15T16:27:20.801Z,24.20
2018-04-15T16:29:49.093Z,25.63
2018-04-15T16:32:17.339Z,29.17
2018-04-15T16:34:45.605Z,25.67
2018-04-15T16:37:14.607Z,25.10
2018-04-15T16:39:42.909Z,24.97
2018-04-15T16:42:11.155Z,22.57
2018-04-15T16:44:39.417Z,24.30
2018-04-15T16:47:08.428Z,27.57
2018-04-15T16:49:36.698Z,23.77
2018-04-15T16:52:04.946Z,24.27
2018-04-15T16:54:33.277Z,24.43
2018-04-15T16:57:01.545Z,27.00
2018-04-15T16:59:29.809Z,24.73
2018-04-15T17:01:58.062Z,25.10
2018-04-15T17:04:27.083Z,25.50
2018-04-15T17:06:55.367Z,24.97
2018-04-15T17:09:23.625Z,25.30
2018-04-15T17:11:51.919Z,28.17
2018-04-15T17:14:20.168Z,25.27
2018-04-15T17:16:48.430Z,23.10
2018-04-15T17:19:17.499Z,23.53
2018-04-15T17:21:45.749Z,24.70
2018-04-15T17:24:14.008Z,24.87
2018-04-15T17:26:42.270Z,22.47
2018-04-15T17:29:10.559Z,25.13
2018-04-15T17:31:38.822Z,24.70
2018-04-15T17:34:07.117Z,23.70
2018-04-15T17:36:35.394Z,22.07
2018-04-15T17:39:03.651Z,19.67
2018-04-15T17:41:31.914Z,20.33
2018-04-15T17:44:00.174Z,22.57
2018-04-15T17:46:29.309Z,21.67
2018-04-15T17:48:57.555Z,20.13
2018-04-15T17:51:25.818Z,19.50
2018-04-15T17:53:54.834Z,22.20
2018-04-15T17:56:23.091Z,21.87
2018-04-15T17:58:51.429Z,23.83
2018-04-15T18:01:19.681Z,24.13
2018-04-15T18:03:47.961Z,20.63
2018-04-15T18:06:16.235Z,20.83
2018-04-15T18:08:44.490Z,28.33
2018-04-15T18:11:12.755Z,25.47
2018-04-15T18:13:41.014Z,26.90
2018-04-15T18:16:10.058Z,28.07
2018-04-15T18:18:38.332Z,23.27
2018-04-15T18:21:06.717Z,24.10
2018-04-15T18:23:34.957Z,22.30
2018-04-15T18:26:03.233Z,22.67
2018-04-15T18:28:31.527Z,24.77
2018-04-15T18:30:59.788Z,21.70
2018-04-15T18:33:28.042Z,22.77
2018-04-15T18:35:56.339Z,25.87
2018-04-15T18:38:24.574Z,22.40
2018-04-15T18:40:53.664Z,24.97
2018-04-15T18:43:22.754Z,26.80
2018-04-15T18:45:50.995Z,27.40
2018-04-15T18:48:20.017Z,30.23
2018-04-15T18:50:48.281Z,31.17
2018-04-15T18:53:16.538Z,27.63
2018-04-15T18:55:44.802Z,29.30
2018-04-15T18:58:13.068Z,30.07
2018-04-15T19:00:41.328Z,29.13
2018-04-15T19:03:09.586Z,25.40
2018-04-15T19:05:38.616Z,25.93
2018-04-15T19:08:06.861Z,20.97
2018-04-15T19:10:35.122Z,22.03
2018-04-15T19:13:04.618Z,22.97
2018-04-15T19:15:32.857Z,20.43
2018-04-15T19:18:01.116Z,22.67
2018-04-15T19:20:29.380Z,24.83
2018-04-15T19:22:57.644Z,22.40
2018-04-15T19:25:26.655Z,24.53
2018-04-15T19:27:54.919Z,24.33
2018-04-15T19:30:23.201Z,24.90
2018-04-15T19:32:51.465Z,23.13
2018-04-15T19:35:19.721Z,27.20
2018-04-15T19:37:48.756Z,26.33
2018-04-15T19:40:17.018Z,23.50
2018-04-15T19:42:45.277Z,25.60
2018-04-15T19:45:14.326Z,23.80
2018-04-15T19:47:42.632Z,23.77
2018-04-15T19:50:12.380Z,23.20
2018-04-15T19:52:40.655Z,26.63
2018-04-15T19:55:09.228Z,26.10
2018-04-15T19:57:38.245Z,24.33
2018-04-15T20:00:06.502Z,27.63
2018-04-15T20:02:34.781Z,27.83
2018-04-15T20:05:03.028Z,23.70
2018-04-15T20:07:32.105Z,24.70
2018-04-15T20:10:00.364Z,22.77
2018-04-15T20:12:28.610Z,24.50
2018-04-15T20:14:56.869Z,24.60
2018-04-15T20:17:25.129Z,23.83
2018-04-15T20:19:54.148Z,24.97
2018-04-15T20:22:22.414Z,25.23
2018-04-15T20:24:50.672Z,27.83
2018-04-15T20:27:18.920Z,25.00
2018-04-15T20:29:47.185Z,26.03
2018-04-15T20:32:15.440Z,24.67
2018-04-15T20:34:43.700Z,27.23
2018-04-15T20:37:11.962Z,25.87
2018-04-15T20:39:41.788Z,28.27
2018-04-15T20:42:10.067Z,26.50
2018-04-15T20:44:38.329Z,27.37
2018-04-15T20:47:06.625Z,25.40
2018-04-15T20:49:34.876Z,25.33
2018-04-15T20:52:03.180Z,25.67
2018-04-15T20:54:31.452Z,28.20
2018-04-15T20:56:59.723Z,27.73
2018-04-15T20:59:28.043Z,31.70
2018-04-15T21:01:57.076Z,21.97
2018-04-15T21:04:25.368Z,27.93
2018-04-15T21:06:53.628Z,25.77
2018-04-15T21:09:21.885Z,25.60
2018-04-15T21:11:50.155Z,23.47
2018-04-15T21:14:19.178Z,26.20
2018-04-15T21:16:47.436Z,27.00
2018-04-15T21:19:15.688Z,26.37
2018-04-15T21:21:44.734Z,27.33
2018-04-15T21:24:12.985Z,28.33
2018-04-15T21:26:41.237Z,27.00
2018-04-15T21:29:10.290Z,26.07
2018-04-15T21:31:38.561Z,27.57
2018-04-15T21:34:06.834Z,27.33
2018-04-15T21:36:35.113Z,29.30
2018-04-15T21:39:03.489Z,26.90
2018-04-15T21:41:31.743Z,25.33
2018-04-15T21:44:00.028Z,26.27
2018-04-15T21:46:28.263Z,28.53
2018-04-15T21:48:57.351Z,25.80
2018-04-15T21:51:25.581Z,26.83
2018-04-15T21:53:53.844Z,30.23
2018-04-15T21:56:22.096Z,26.83
2018-04-15T21:58:50.418Z,25.37
2018-04-15T22:01:18.668Z,25.80
2018-04-15T22:03:46.933Z,25.53
2018-04-15T22:06:15.192Z,26.83
2018-04-15T22:08:44.329Z,24.37
2018-04-15T22:11:12.589Z,23.97
2018-04-15T22:13:40.846Z,24.97
2018-04-15T22:16:09.143Z,23.73
2018-04-15T22:18:37.396Z,25.67
2018-04-15T22:21:05.701Z,28.93
2018-04-15T22:23:33.955Z,23.97
2018-04-15T22:26:02.229Z,26.03
2018-04-15T22:28:30.491Z,25.50
2018-04-15T22:30:59.558Z,25.00
2018-04-15T22:33:27.804Z,24.63
2018-04-15T22:35:56.073Z,26.83
2018-04-15T22:38:24.337Z,25.60
2018-04-15T22:40:52.626Z,26.67
2018-04-15T22:43:20.899Z,26.67
2018-04-15T22:45:49.161Z,25.63
2018-04-15T22:48:17.423Z,27.50
2018-04-15T22:50:45.684Z,26.33
2018-04-15T22:53:14.699Z,26.97
2018-04-15T22:55:42.960Z,26.27
2018-04-15T22:58:11.216Z,26.97
2018-04-15T23:00:40.379Z,26.23
2018-04-15T23:03:08.637Z,24.40
2018-04-15T23:05:36.891Z,24.83
2018-04-15T23:08:05.203Z,25.90
2018-04-15T23:10:33.455Z,24.33
2018-04-15T23:13:01.718Z,25.33
2018-04-15T23:15:29.975Z,27.50
2018-04-15T23:17:59.019Z,27.77
2018-04-15T23:20:27.273Z,27.30
2018-04-15T23:22:55.583Z,24.63
2018-04-15T23:25:23.917Z,25.93
2018-04-15T23:27:53.071Z,22.87
2018-04-15T23:30:21.316Z,22.90
2018-04-15T23:32:49.618Z,27.27
2018-04-15T23:35:19.372Z,26.60
2018-04-15T23:37:47.675Z,23.07
2018-04-15T23:40:15.937Z,24.37
2018-04-15T23:42:44.196Z,27.83
2018-04-15T23:45:12.455Z,23.67
2018-04-15T23:47:41.507Z,25.27
2018-04-15T23:50:09.769Z,26.40
2018-04-15T23:52:38.029Z,27.73
2018-04-15T23:55:06.324Z,28.43
2018-04-15T23:57:34.591Z,27.63
